FNLU/LAD METAR and TAF weather

Enter ICAO airport designator
Station Type Date Time Source
FNLU METAR 2020/07/11 05:00 UTC NOAA

FNLU 110500Z VRB02KT 8000 BKN020 21/19 Q1013 NOSIG


Station Type Date Time Source
FNLU Decoded METAR 2020/07/11 05:00 UTC NOAA

Luanda, Angola (FNLU) 08-51S 013-14E 70M
Jul 11, 2020 - 01:00 AM EDT / 2020.07.11 0500 UTC
Wind: Variable at 2 MPH (2 KT):0
Visibility: 4 mile(s):0
Sky conditions: mostly cloudy
Temperature: 69 F (21 C)
Dew Point: 66 F (19 C)
Relative Humidity: 88%
Pressure (altimeter): 29.91 in. Hg (1013 hPa)
ob: FNLU 110500Z VRB02KT 8000 BKN020 21/19 Q1013 NOSIG
cycle: 5

Station Type Date Time Source
FNLU TAF 2020/07/10 12:51 UTC NOAA

TAF TAF FNLU 101100Z 1012/1118 27008KT 9000 BKN020 OVC030
TEMPO 1016/1024 9999 FEW022

Example: see airport list